Time;durP1;ratioP1;P1;durP2;ratioP2;P2;SDS_P1;SDS_P2;PMS_P1;PMS_P2;Temp;Humidity;BMP_temperature;BMP_pressure;BME280_temperature;BME280_humidity;BME280_pressure;Samples;Min_cycle;Max_cycle;Signal;HPM_P1;HPM_P2
2023/12/14 00:00:47;;;;;;;11.50;8.20;;;6.60;99.90;;;6.07;100.00;96780.75;5045543;28;20452;-74
2023/12/14 00:03:14;;;;;;;9.23;8.20;;;6.60;99.90;;;6.11;100.00;96791.06;5040848;28;20514;-73
2023/12/14 00:05:43;;;;;;;7.80;6.77;;;6.60;99.90;;;6.18;100.00;96789.97;5047263;28;20456;-72
2023/12/14 00:08:12;;;;;;;9.03;8.10;;;6.60;99.90;;;6.24;100.00;96799.00;5064336;28;20458;-72
2023/12/14 00:10:39;;;;;;;9.77;8.00;;;6.70;99.90;;;6.01;100.00;96799.53;5048032;28;20522;-74
2023/12/14 00:13:08;;;;;;;8.97;7.83;;;6.60;99.90;;;6.05;100.00;96798.91;5047114;28;20476;-72
2023/12/14 00:15:35;;;;;;;13.80;9.30;;;6.60;99.90;;;5.89;100.00;96802.91;5047836;28;20803;-73
2023/12/14 00:18:02;;;;;;;9.13;8.10;;;6.50;99.90;;;5.92;100.00;96797.09;5040671;28;20506;-73
2023/12/14 00:20:30;;;;;;;9.23;8.23;;;6.50;99.90;;;5.90;100.00;96817.94;5048781;28;21090;-73
2023/12/14 00:22:58;;;;;;;12.33;8.70;;;6.50;99.90;;;5.82;100.00;96800.25;5047011;28;20461;-73
2023/12/14 00:25:26;;;;;;;10.77;8.40;;;6.50;99.90;;;5.82;100.00;96804.78;5048453;28;20458;-74
2023/12/14 00:27:53;;;;;;;9.30;8.20;;;6.50;99.90;;;5.90;100.00;96807.22;5043410;28;21559;-73
2023/12/14 00:30:21;;;;;;;13.73;9.00;;;6.50;99.90;;;5.78;100.00;96814.28;5054479;28;20479;-73
2023/12/14 00:32:48;;;;;;;12.87;9.23;;;6.40;99.90;;;5.80;100.00;96826.47;5046945;28;20585;-74
2023/12/14 00:35:15;;;;;;;11.27;8.70;;;6.40;99.90;;;5.85;100.00;96825.81;5050425;28;20506;-73
2023/12/14 00:37:43;;;;;;;12.37;9.60;;;6.50;99.90;;;5.94;100.00;96829.88;5049058;28;20459;-72
2023/12/14 00:40:13;;;;;;;12.03;8.93;;;6.50;99.90;;;6.08;100.00;96829.84;5047807;28;20459;-73
2023/12/14 00:42:41;;;;;;;11.40;9.23;;;6.60;99.90;;;5.99;100.00;96831.94;5041587;28;20583;-72
2023/12/14 00:45:10;;;;;;;13.40;8.23;;;6.60;99.90;;;5.89;100.00;96839.59;5044540;28;20457;-72
2023/12/14 00:47:37;;;;;;;16.80;9.70;;;6.50;99.90;;;5.72;100.00;96823.22;5044991;28;20457;-72
2023/12/14 00:50:06;;;;;;;10.90;9.10;;;6.50;99.90;;;5.77;100.00;96840.28;5047517;28;20445;-72
2023/12/14 00:52:33;;;;;;;13.13;8.90;;;6.40;99.90;;;5.82;100.00;96839.63;5047041;28;20954;-72
2023/12/14 00:55:00;;;;;;;11.70;8.87;;;6.40;99.90;;;5.96;100.00;96848.44;5049086;28;21246;-72
2023/12/14 00:57:30;;;;;;;11.87;9.10;;;6.50;99.90;;;5.82;100.00;96855.72;5057102;28;20503;-73
2023/12/14 00:59:57;;;;;;;13.53;9.37;;;6.40;99.90;;;5.78;100.00;96857.19;5046703;28;20480;-72
2023/12/14 01:02:25;;;;;;;14.17;9.70;;;6.40;99.90;;;5.73;100.00;96857.00;5047785;28;20504;-72
2023/12/14 01:04:52;;;;;;;12.90;9.27;;;6.40;99.90;;;5.77;100.00;96863.59;5060691;28;20564;-72
2023/12/14 01:07:19;;;;;;;13.07;9.10;;;6.40;99.90;;;5.83;100.00;96876.13;5044339;28;20464;-72
2023/12/14 01:09:49;;;;;;;10.10;9.03;;;6.40;99.90;;;5.68;100.00;96869.16;5055088;28;20457;-72
2023/12/14 01:12:16;;;;;;;13.27;9.20;;;6.40;99.90;;;5.66;100.00;96886.53;5045846;28;20477;-73
2023/12/14 01:14:45;;;;;;;13.10;9.33;;;6.30;99.90;;;5.68;100.00;96882.56;5045024;28;20449;-73
2023/12/14 01:17:12;;;;;;;12.90;9.30;;;6.30;99.90;;;5.64;100.00;96889.41;5042977;28;20465;-74
2023/12/14 01:19:41;;;;;;;16.40;10.03;;;6.30;99.90;;;5.63;100.00;96889.63;5045502;28;20457;-72
2023/12/14 01:22:09;;;;;;;11.97;9.10;;;6.30;99.90;;;5.72;100.00;96890.22;5047489;28;20445;-73
2023/12/14 01:24:36;;;;;;;13.00;10.17;;;6.30;99.90;;;5.66;100.00;96898.03;5047245;28;20507;-73
2023/12/14 01:27:04;;;;;;;13.73;9.90;;;6.30;99.90;;;5.62;100.00;96906.75;5046790;28;20482;-72
2023/12/14 01:29:32;;;;;;;13.43;9.77;;;6.20;99.90;;;5.61;100.00;96911.25;5044849;28;20450;-72
2023/12/14 01:32:01;;;;;;;13.50;10.70;;;6.20;99.90;;;5.62;100.00;96904.88;5047469;28;20476;-73
2023/12/14 01:34:28;;;;;;;15.30;10.63;;;6.20;99.90;;;5.64;100.00;96910.84;5047536;28;20481;-72
2023/12/14 01:36:55;;;;;;;15.13;10.77;;;6.20;99.90;;;5.59;100.00;96912.50;5046175;28;20556;-71
2023/12/14 01:39:23;;;;;;;15.43;10.20;;;6.20;99.90;;;5.53;100.00;96909.63;5057137;28;20556;-71
2023/12/14 01:41:50;;;;;;;13.33;10.10;;;6.20;99.90;;;5.61;100.00;96918.47;5048925;28;21305;-72
2023/12/14 01:44:17;;;;;;;14.07;10.60;;;6.20;99.90;;;5.66;100.00;96916.81;5046229;28;20503;-72
2023/12/14 01:46:45;;;;;;;15.60;12.03;;;6.20;99.90;;;5.55;100.00;96922.84;5045004;28;20461;-72
2023/12/14 01:49:14;;;;;;;18.00;11.60;;;6.20;99.90;;;5.23;100.00;96875.28;5041829;28;20454;-72
2023/12/14 01:51:41;;;;;;;14.17;10.23;;;6.20;99.90;;;5.66;100.00;96924.03;5043413;28;20462;-73
2023/12/14 01:54:09;;;;;;;16.40;11.23;;;6.20;99.90;;;5.64;100.00;96920.75;5045661;28;20453;-72
2023/12/14 01:56:36;;;;;;;12.57;10.70;;;6.30;99.90;;;5.61;100.00;96931.88;5043842;28;20459;-72
2023/12/14 01:59:03;;;;;;;15.57;11.00;;;6.20;99.90;;;5.78;100.00;96945.63;5047798;28;20464;-73
2023/12/14 02:04:15;;;;;;;17.20;12.20;;;6.30;99.90;;;5.76;100.00;96940.50;6049939;22;21861;-75
2023/12/14 02:06:46;;;;;;;22.07;13.47;;;6.40;99.90;;;5.82;100.00;96949.53;5357660;23;20537;-76
2023/12/14 02:09:13;;;;;;;18.30;11.53;;;6.30;99.90;;;5.73;100.00;96959.66;5015786;28;20550;-74
2023/12/14 02:11:41;;;;;;;17.93;12.30;;;6.30;99.90;;;5.76;100.00;96958.44;4980739;28;20529;-75
2023/12/14 02:14:10;;;;;;;16.00;11.70;;;6.30;99.90;;;5.63;100.00;96956.63;5012513;28;20472;-77
2023/12/14 02:16:38;;;;;;;19.87;12.77;;;6.30;99.90;;;5.66;100.00;96962.38;5007076;28;20878;-75
2023/12/14 02:19:07;;;;;;;15.80;11.93;;;6.30;99.90;;;5.69;100.00;96966.50;5017019;28;20469;-75
2023/12/14 02:21:35;;;;;;;18.13;12.30;;;6.30;99.90;;;5.59;100.00;96972.28;5002001;28;20444;-74
2023/12/14 02:24:04;;;;;;;22.90;12.83;;;6.30;99.90;;;5.57;100.00;96969.00;5017564;28;20471;-74
2023/12/14 02:26:33;;;;;;;18.20;12.10;;;6.20;99.90;;;5.45;100.00;96970.66;5020288;28;20455;-74
2023/12/14 02:29:00;;;;;;;22.73;13.57;;;6.20;99.90;;;5.48;100.00;96980.97;5012746;28;20548;-74
2023/12/14 02:31:28;;;;;;;18.47;11.60;;;6.10;99.90;;;5.57;100.00;96971.69;4998694;28;20466;-75
2023/12/14 02:33:55;;;;;;;25.17;14.27;;;6.20;99.90;;;5.48;100.00;96986.31;5020049;28;20493;-74
2023/12/14 02:36:23;;;;;;;19.17;13.00;;;6.10;99.90;;;5.49;100.00;96963.84;5019312;28;20449;-75
2023/12/14 02:38:51;;;;;;;19.40;13.47;;;6.10;99.90;;;5.32;100.00;96974.19;5015930;28;20445;-75
2023/12/14 02:41:20;;;;;;;20.57;13.53;;;6.00;99.90;;;5.51;100.00;96981.38;5019460;28;20465;-75
2023/12/14 02:43:47;;;;;;;19.70;13.90;;;6.10;99.90;;;5.34;100.00;96986.31;4996939;28;20459;-74
2023/12/14 02:46:16;;;;;;;20.17;12.70;;;6.00;99.90;;;4.83;100.00;96931.53;5017772;28;20960;-75
2023/12/14 02:48:44;;;;;;;20.10;13.30;;;5.90;99.90;;;5.24;100.00;96996.66;4997799;28;20489;-75
2023/12/14 02:51:14;;;;;;;24.90;14.83;;;5.90;99.90;;;5.32;100.00;96998.28;5019952;28;20470;-74
2023/12/14 02:53:43;;;;;;;19.90;13.60;;;5.90;99.90;;;5.21;100.00;96981.81;5013317;28;20489;-74
2023/12/14 02:56:11;;;;;;;19.60;13.93;;;5.90;99.90;;;5.37;100.00;96996.63;5013864;28;20465;-74
2023/12/14 02:58:40;;;;;;;19.17;13.50;;;6.00;99.90;;;5.47;100.00;97006.09;4996783;28;20461;-75
2023/12/14 03:01:08;;;;;;;18.97;13.40;;;6.10;99.90;;;5.60;100.00;97016.81;5000653;28;20459;-76
2023/12/14 03:03:35;;;;;;;20.73;13.20;;;6.10;99.90;;;5.62;100.00;97014.75;5014864;28;20524;-74
2023/12/14 03:06:02;;;;;;;19.97;14.10;;;6.10;99.90;;;5.57;100.00;97032.47;5011522;28;20470;-74
2023/12/14 03:08:31;;;;;;;20.73;14.30;;;6.10;99.90;;;5.35;100.00;97030.81;5016492;28;20553;-74
2023/12/14 03:10:58;;;;;;;22.97;14.00;;;6.00;99.90;;;4.94;100.00;96943.50;5001814;28;20473;-73
2023/12/14 03:13:25;;;;;;;19.50;13.87;;;6.00;99.90;;;5.32;100.00;97025.88;5013524;28;20466;-73
2023/12/14 03:15:55;;;;;;;25.80;15.17;;;6.00;99.90;;;5.62;100.00;97030.81;5011171;28;20530;-73
2023/12/14 03:18:22;;;;;;;19.17;13.93;;;6.10;99.90;;;5.65;100.00;97030.41;5005139;28;20459;-73
2023/12/14 03:20:50;;;;;;;17.17;13.63;;;6.20;99.90;;;5.70;100.00;97039.69;5018485;28;21335;-73
2023/12/14 03:23:17;;;;;;;21.50;14.27;;;6.20;99.90;;;5.46;100.00;97042.81;4994563;28;20545;-73
2023/12/14 03:25:45;;;;;;;22.13;14.20;;;6.20;99.90;;;5.55;100.00;97054.13;5019265;28;20459;-74
2023/12/14 03:28:13;;;;;;;18.50;13.00;;;6.10;99.90;;;5.57;100.00;97057.44;5017857;28;20468;-73
2023/12/14 03:30:40;;;;;;;21.73;13.70;;;6.10;99.90;;;5.68;100.00;97054.09;5010860;28;20458;-72
2023/12/14 03:33:08;;;;;;;18.53;13.90;;;6.20;99.90;;;5.59;100.00;97058.03;4995916;28;20474;-73
2023/12/14 03:35:36;;;;;;;21.37;14.80;;;6.30;99.90;;;5.44;100.00;97062.78;5016290;28;20555;-73
2023/12/14 03:38:03;;;;;;;20.87;14.00;;;6.10;99.90;;;5.34;100.00;97066.69;5012758;28;20523;-72
2023/12/14 03:40:31;;;;;;;19.10;14.40;;;6.00;99.90;;;5.29;100.00;97063.81;5014204;28;20467;-72
2023/12/14 03:42:58;;;;;;;19.37;13.33;;;6.00;99.90;;;5.48;100.00;97061.34;4995511;28;20463;-74
2023/12/14 03:45:26;;;;;;;23.53;15.37;;;6.10;99.90;;;5.35;100.00;97070.19;5013980;28;20473;-73
2023/12/14 03:47:54;;;;;;;23.70;14.90;;;6.00;99.90;;;5.16;100.00;97051.25;5001356;28;20458;-73
2023/12/14 03:50:22;;;;;;;22.17;15.30;;;6.00;99.90;;;5.19;100.00;97074.94;5013043;28;20470;-73
2023/12/14 03:52:50;;;;;;;23.40;15.50;;;5.90;99.90;;;5.16;100.00;97085.22;4994297;28;20560;-72
2023/12/14 03:55:17;;;;;;;21.60;14.97;;;5.90;99.90;;;5.33;100.00;97085.66;4998040;28;20478;-72
2023/12/14 03:57:45;;;;;;;21.43;14.97;;;6.00;99.90;;;5.31;100.00;97095.75;5000844;28;20456;-73
2023/12/14 04:00:14;;;;;;;25.43;15.13;;;5.90;99.90;;;5.14;100.00;97097.97;5013926;28;20465;-73
2023/12/14 04:02:42;;;;;;;25.03;16.10;;;5.90;99.90;;;5.27;100.00;97103.38;5009774;28;20461;-73
2023/12/14 04:05:11;;;;;;;27.43;15.20;;;5.90;99.90;;;5.32;100.00;97108.13;5017980;28;20997;-73
2023/12/14 04:07:40;;;;;;;22.80;15.73;;;5.90;99.90;;;5.31;100.00;97104.59;5002108;28;20447;-74
2023/12/14 04:10:09;;;;;;;21.43;16.10;;;6.00;99.90;;;5.37;100.00;97119.03;5018193;28;20548;-74
2023/12/14 04:12:37;;;;;;;25.23;17.20;;;6.00;99.90;;;5.38;100.00;97121.53;4992628;28;20475;-73
2023/12/14 04:15:07;;;;;;;23.53;15.97;;;6.00;99.90;;;5.43;100.00;97114.72;5012348;28;20617;-74
2023/12/14 04:17:34;;;;;;;21.23;15.37;;;6.00;99.90;;;5.62;100.00;97127.28;5015520;28;20449;-74
2023/12/14 04:20:02;;;;;;;20.73;14.53;;;6.20;99.90;;;5.37;100.00;97129.75;5022837;28;20509;-74
2023/12/14 04:22:30;;;;;;;22.30;15.30;;;6.10;99.90;;;5.33;100.00;97132.00;5004569;28;20477;-74
2023/12/14 04:24:58;;;;;;;21.60;15.30;;;6.00;99.90;;;5.38;100.00;97134.91;5014029;28;20457;-74
2023/12/14 04:27:28;;;;;;;25.13;15.53;;;6.00;99.90;;;5.41;100.00;97146.25;5005713;28;20471;-74
2023/12/14 04:29:55;;;;;;;23.90;15.23;;;6.00;99.90;;;5.55;100.00;97144.41;5004339;28;20454;-74
2023/12/14 04:32:22;;;;;;;25.23;15.67;;;6.10;99.90;;;5.70;100.00;97149.59;5019593;28;20813;-74
2023/12/14 04:34:49;;;;;;;24.77;15.70;;;6.20;99.90;;;5.49;100.00;97144.19;5020974;28;20471;-75
2023/12/14 04:37:16;;;;;;;26.70;16.13;;;6.10;99.90;;;5.47;100.00;97156.97;5002840;28;20497;-74
2023/12/14 04:39:45;;;;;;;23.63;16.30;;;6.10;99.90;;;5.52;100.00;97159.84;5025285;28;20981;-75
2023/12/14 04:42:13;;;;;;;23.27;17.07;;;6.10;99.90;;;5.42;100.00;97163.97;5023188;28;20455;-75
2023/12/14 04:44:40;;;;;;;23.67;16.53;;;6.10;99.90;;;5.39;100.00;97160.69;5003405;28;20458;-75
2023/12/14 04:47:09;;;;;;;23.60;15.83;;;6.00;99.90;;;5.54;100.00;97162.34;5017746;28;20572;-75
2023/12/14 04:49:36;;;;;;;21.63;14.83;;;6.10;99.90;;;5.35;100.00;97172.81;5019405;28;20489;-75
2023/12/14 04:52:05;;;;;;;24.37;15.33;;;6.10;99.90;;;5.32;100.00;97175.91;5007046;28;20457;-75
2023/12/14 04:54:32;;;;;;;24.23;16.83;;;6.00;99.90;;;5.27;100.00;97180.19;5020489;28;20491;-74
2023/12/14 04:56:59;;;;;;;24.73;15.33;;;6.00;99.90;;;5.24;100.00;97181.44;5021571;28;20457;-73
2023/12/14 04:59:28;;;;;;;21.23;14.33;;;6.00;99.90;;;5.34;100.00;97189.09;4998398;28;20485;-74
2023/12/14 05:01:55;;;;;;;21.33;13.60;;;6.00;99.90;;;5.48;100.00;97187.25;5013733;28;20451;-74
2023/12/14 05:04:24;;;;;;;22.00;13.20;;;6.10;99.90;;;5.28;100.00;97201.44;5014801;28;20467;-74
2023/12/14 05:06:53;;;;;;;20.23;13.60;;;6.00;99.90;;;5.43;100.00;97197.78;5018094;28;20865;-74
2023/12/14 05:09:21;;;;;;;23.93;14.87;;;6.00;99.90;;;5.17;100.00;97180.59;5018247;28;20950;-74
2023/12/14 05:11:48;;;;;;;22.13;13.90;;;6.00;99.90;;;5.25;100.00;97201.84;5025084;28;20447;-74
2023/12/14 05:14:15;;;;;;;22.03;15.40;;;5.90;99.90;;;5.18;100.00;97206.34;5001992;28;20613;-73
2023/12/14 05:16:45;;;;;;;23.17;14.73;;;5.90;99.90;;;5.18;100.00;97211.69;5015712;28;20465;-74
2023/12/14 05:19:12;;;;;;;24.10;13.43;;;5.90;99.90;;;5.29;100.00;97211.13;5016877;28;20453;-73
2023/12/14 05:21:41;;;;;;;18.77;12.90;;;5.90;99.90;;;5.21;100.00;97219.31;4999505;28;20475;-75
2023/12/14 05:24:08;;;;;;;22.30;13.67;;;5.90;99.90;;;5.26;100.00;97216.88;5016216;28;20539;-75
2023/12/14 05:26:35;;;;;;;23.83;14.30;;;5.90;99.90;;;5.07;100.00;97219.28;5011970;28;20465;-74
2023/12/14 05:29:03;;;;;;;24.20;15.20;;;5.80;99.90;;;5.15;100.00;97228.16;5015118;28;20473;-75
2023/12/14 05:31:30;;;;;;;23.00;13.77;;;5.80;99.90;;;5.10;100.00;97240.31;4997160;28;20830;-74
2023/12/14 05:34:00;;;;;;;25.00;15.23;;;5.80;99.90;;;5.30;100.00;97244.91;5008862;28;20485;-73
2023/12/14 05:36:27;;;;;;;21.43;14.47;;;5.90;99.90;;;5.25;100.00;97226.75;4994397;28;20456;-75
2023/12/14 05:38:54;;;;;;;19.90;13.17;;;5.90;99.90;;;5.30;100.00;97239.56;4998426;28;20465;-76
2023/12/14 05:41:23;;;;;;;20.10;13.80;;;5.90;99.90;;;5.59;100.00;97251.00;5003458;28;20584;-77
2023/12/14 05:43:50;;;;;;;21.30;14.97;;;6.00;99.90;;;5.55;100.00;97259.63;4996406;28;20443;-75
2023/12/14 05:46:24;;;;;;;25.80;15.17;;;6.10;99.90;;;5.64;100.00;97251.19;4997620;28;20813;-79
2023/12/14 05:48:52;;;;;;;18.63;13.43;;;6.10;99.90;;;5.61;100.00;97265.00;5001752;28;20461;-78
2023/12/14 05:51:31;;;;;;;22.80;13.53;;;6.20;99.90;;;5.68;100.00;97257.78;5015857;28;20451;-75
2023/12/14 05:54:00;;;;;;;20.77;13.40;;;6.20;99.90;;;5.53;100.00;97273.22;5011798;28;21037;-78
2023/12/14 05:56:27;;;;;;;20.97;12.63;;;6.20;99.10;;;5.33;100.00;97284.69;4999898;28;20455;-74
2023/12/14 05:58:56;;;;;;;25.33;14.90;;;6.10;99.00;;;5.17;100.00;97258.25;5015831;28;20879;-77
2023/12/14 06:01:25;;;;;;;27.17;14.00;;;6.00;99.40;;;5.34;100.00;97269.47;5020718;28;20459;-77
2023/12/14 06:03:52;;;;;;;18.93;12.47;;;6.00;99.90;;;5.34;100.00;97286.34;5024158;28;20526;-80
2023/12/14 06:06:20;;;;;;;25.40;15.37;;;6.00;99.90;;;5.44;100.00;97293.19;5004106;28;20462;-80
2023/12/14 06:08:49;;;;;;;25.73;14.10;;;6.00;99.90;;;5.27;100.00;97296.22;5016774;28;20994;-78
2023/12/14 06:11:17;;;;;;;22.27;13.13;;;6.00;99.90;;;5.31;100.00;97307.38;5004529;28;20450;-79
2023/12/14 06:13:44;;;;;;;22.00;14.37;;;6.00;99.90;;;5.60;100.00;97314.28;5000459;28;20533;-73
2023/12/14 06:16:12;;;;;;;20.27;13.47;;;6.10;99.90;;;5.61;100.00;97307.88;5013108;28;20457;-77
2023/12/14 06:18:41;;;;;;;21.33;13.87;;;6.20;99.90;;;5.43;100.00;97318.34;5014174;28;20553;-79
2023/12/14 06:21:09;;;;;;;22.87;12.83;;;6.10;99.90;;;5.55;100.00;97268.50;4998404;28;20489;-76
2023/12/14 06:23:36;;;;;;;20.33;13.50;;;6.30;99.90;;;5.83;100.00;97318.44;5014473;28;20458;-77
2023/12/14 06:26:06;;;;;;;23.40;14.83;;;6.40;99.90;;;5.89;100.00;97319.50;4999582;28;20478;-79
2023/12/14 06:28:34;;;;;;;31.83;14.57;;;6.40;99.90;;;6.27;100.00;97320.84;5016423;28;20485;-77
2023/12/14 06:31:02;;;;;;;20.23;14.47;;;6.70;99.90;;;6.07;100.00;97317.13;4998271;28;20483;-78
2023/12/14 06:33:32;;;;;;;21.80;15.17;;;6.70;99.90;;;5.99;100.00;97329.84;4986919;28;20511;-76
2023/12/14 06:35:59;;;;;;;23.27;13.90;;;6.60;99.20;;;5.70;100.00;97342.56;4993286;28;20869;-78
2023/12/14 06:38:27;;;;;;;19.73;13.40;;;6.50;98.00;;;5.71;100.00;97339.66;5013450;28;20462;-76
2023/12/14 06:40:55;;;;;;;23.40;13.87;;;6.40;98.00;;;5.79;100.00;97344.03;5018160;28;20544;-77
2023/12/14 06:43:23;;;;;;;24.43;16.20;;;6.30;98.70;;;5.91;100.00;97353.13;5017735;28;20485;-77
2023/12/14 06:45:51;;;;;;;20.90;13.93;;;6.40;99.10;;;5.75;100.00;97356.19;5017361;28;20549;-76
2023/12/14 06:48:18;;;;;;;20.23;15.00;;;6.40;99.10;;;5.73;100.00;97352.88;5004948;28;20458;-77
2023/12/14 06:50:46;;;;;;;24.47;15.27;;;6.40;98.60;;;5.74;100.00;97365.25;5017792;28;20486;-75
2023/12/14 06:53:15;;;;;;;26.13;15.50;;;6.30;98.60;;;5.79;100.00;97376.19;5007834;28;20468;-81
2023/12/14 06:55:44;;;;;;;28.37;15.40;;;6.30;99.00;;;5.86;100.00;97374.38;5005017;28;20455;-75
2023/12/14 06:58:12;;;;;;;20.00;13.90;;;6.40;99.50;;;5.86;100.00;97379.75;5020324;28;20447;-75
2023/12/14 07:00:40;;;;;;;22.43;14.90;;;6.40;98.40;;;5.96;100.00;97395.44;5016541;28;20464;-74
2023/12/14 07:03:07;;;;;;;24.70;14.90;;;6.30;99.00;;;5.93;100.00;97391.31;4996573;28;20446;-74
2023/12/14 07:05:36;;;;;;;22.80;14.97;;;6.50;97.90;;;6.09;100.00;97403.56;4996836;28;20459;-75
2023/12/14 07:08:03;;;;;;;21.97;15.53;;;6.50;97.80;;;5.94;100.00;97410.91;5001587;28;20450;-87
2023/12/14 07:10:30;;;;;;;25.10;15.03;;;6.40;97.00;;;5.99;100.00;97421.84;5001275;28;20466;-74
2023/12/14 07:12:57;;;;;;;25.90;16.37;;;6.50;97.00;;;5.98;100.00;97420.19;5005775;28;20466;-69
2023/12/14 07:15:25;;;;;;;23.43;14.70;;;6.50;96.80;;;5.96;100.00;97419.56;4997270;28;20513;-71
2023/12/14 07:17:54;;;;;;;24.77;15.97;;;6.50;96.50;;;6.07;100.00;97427.09;5013942;28;20551;-71
2023/12/14 07:20:22;;;;;;;26.80;18.17;;;6.50;96.90;;;6.10;100.00;97428.50;5000173;28;20468;-71
2023/12/14 07:22:49;;;;;;;24.67;15.27;;;6.60;96.40;;;6.15;100.00;97431.44;4992671;28;21275;-74
2023/12/14 07:25:18;;;;;;;33.00;15.50;;;6.70;96.00;;;6.01;100.00;97429.72;5015659;28;20457;-79
2023/12/14 07:27:46;;;;;;;24.27;15.90;;;6.70;95.60;;;5.96;100.00;97455.25;4987507;28;20454;-74
2023/12/14 07:30:14;;;;;;;33.60;23.88;;;6.50;95.90;;;5.95;100.00;97453.59;5001644;28;21016;-73
2023/12/14 07:32:41;;;;;;;26.03;18.77;;;6.50;96.60;;;6.06;100.00;97454.09;5003035;28;21011;-72
2023/12/14 07:35:12;;;;;;;23.03;16.47;;;6.60;96.90;;;6.13;100.00;97454.94;4999561;28;20975;-77
2023/12/14 07:37:39;;;;;;;23.10;15.27;;;6.60;97.10;;;6.07;100.00;97455.75;5014856;28;20464;-73
2023/12/14 07:40:09;;;;;;;23.43;16.30;;;6.60;96.50;;;6.09;100.00;97461.72;5017662;28;20462;-74
2023/12/14 07:42:36;;;;;;;22.90;14.80;;;6.60;96.50;;;5.73;100.00;97428.75;5019142;28;20451;-74
2023/12/14 07:45:04;;;;;;;26.30;16.00;;;6.60;96.20;;;6.15;100.00;97463.63;5019792;28;20483;-73
2023/12/14 07:47:32;;;;;;;26.33;15.47;;;6.70;96.50;;;6.23;99.58;97470.69;5015290;28;20490;-72
2023/12/14 07:49:59;;;;;;;22.20;15.67;;;6.70;95.60;;;6.08;99.47;97462.75;4999172;28;20466;-74
2023/12/14 07:52:28;;;;;;;24.60;15.47;;;6.70;94.90;;;6.07;99.72;97466.47;5013500;28;20481;-81
2023/12/14 07:54:56;;;;;;;21.00;14.53;;;6.70;94.60;;;5.98;99.89;97478.34;5016920;28;20547;-78
2023/12/14 07:57:23;;;;;;;20.53;14.13;;;6.70;94.40;;;5.96;100.00;97474.03;5002715;28;20453;-79
2023/12/14 07:59:52;;;;;;;24.07;15.50;;;6.70;94.90;;;6.05;100.00;97487.31;5007038;28;20455;-77
2023/12/14 08:02:20;;;;;;;23.87;16.23;;;6.80;95.00;;;5.96;100.00;97463.28;5015015;28;20464;-79
2023/12/14 08:04:47;;;;;;;21.37;14.87;;;6.70;94.90;;;6.17;99.90;97487.56;5007134;28;20467;-77
2023/12/14 08:07:14;;;;;;;26.10;15.83;;;6.70;95.00;;;5.77;99.75;97421.13;5012589;28;20488;-78
2023/12/14 08:09:44;;;;;;;22.90;14.93;;;6.80;94.90;;;6.01;99.84;97486.88;5002567;28;20451;-79
2023/12/14 08:12:11;;;;;;;25.93;15.30;;;6.80;94.40;;;6.13;99.66;97500.53;5019046;28;20465;-79
2023/12/14 08:14:43;;;;;;;20.80;15.07;;;6.80;94.60;;;5.93;100.00;97482.47;5022662;28;20488;-80
2023/12/14 08:17:10;;;;;;;22.63;14.90;;;6.70;94.70;;;6.04;100.00;97510.59;5003054;28;20453;-79
2023/12/14 08:19:37;;;;;;;28.57;16.27;;;6.70;95.00;;;6.00;100.00;97505.81;5017084;28;20465;-80
2023/12/14 08:22:05;;;;;;;22.13;15.17;;;6.70;95.10;;;6.24;99.79;97524.09;5018447;28;20472;-75
2023/12/14 08:24:33;;;;;;;21.03;15.83;;;6.80;95.10;;;6.32;99.00;97525.78;5015707;28;20461;-73
2023/12/14 08:27:03;;;;;;;19.60;14.53;;;6.80;94.80;;;6.33;98.76;97529.31;5001643;28;20464;-72
2023/12/14 08:29:30;;;;;;;24.57;15.30;;;6.90;94.30;;;6.30;97.45;97533.22;4999390;28;20519;-73
2023/12/14 08:31:59;;;;;;;23.43;15.30;;;6.90;93.50;;;6.35;97.47;97535.31;4999219;28;20541;-69
2023/12/14 08:34:26;;;;;;;21.30;14.30;;;6.90;93.40;;;6.41;97.42;97528.31;5021426;28;20476;-70
2023/12/14 08:36:53;;;;;;;22.47;15.33;;;6.90;93.50;;;6.44;97.02;97547.50;5001347;28;20809;-70
2023/12/14 08:39:21;;;;;;;21.30;13.97;;;7.00;93.40;;;6.38;97.08;97553.69;5024283;28;20465;-71
2023/12/14 08:41:49;;;;;;;26.70;19.40;;;7.00;93.10;;;6.28;97.59;97556.75;5015962;28;20478;-69
2023/12/14 08:44:18;;;;;;;22.83;15.83;;;6.90;93.30;;;6.27;98.85;97567.66;5021100;28;20284;-70
2023/12/14 08:46:47;;;;;;;22.93;15.73;;;6.90;93.50;;;6.29;97.89;97544.97;5023992;28;20458;-69
2023/12/14 08:49:15;;;;;;;23.90;15.77;;;7.00;94.00;;;6.57;96.73;97570.91;5024237;28;20547;-70
2023/12/14 08:51:43;;;;;;;21.30;15.13;;;7.10;93.40;;;6.45;96.77;97567.97;5004526;28;20457;-81
2023/12/14 08:54:11;;;;;;;22.50;15.40;;;7.00;92.90;;;6.55;96.82;97558.72;5022350;28;20470;-80
2023/12/14 08:56:38;;;;;;;23.53;17.33;;;7.10;93.10;;;6.30;97.59;97565.41;4999003;28;20488;-80
2023/12/14 08:59:07;;;;;;;24.20;15.80;;;7.00;93.10;;;6.31;97.98;97552.84;5024380;28;20450;-78
2023/12/14 09:01:36;;;;;;;21.70;15.70;;;7.00;93.70;;;6.36;98.27;97583.38;5007944;28;20458;-80
2023/12/14 09:04:03;;;;;;;23.90;16.43;;;7.00;93.70;;;6.27;97.99;97584.59;5015216;28;20458;-79
2023/12/14 09:06:31;;;;;;;22.27;15.80;;;7.00;93.60;;;5.71;98.14;97491.63;5001153;28;20572;-80
2023/12/14 09:08:58;;;;;;;23.90;15.73;;;7.00;94.00;;;6.31;98.49;97595.78;5017103;28;20455;-78
2023/12/14 09:11:25;;;;;;;25.57;13.77;;;7.00;93.70;;;6.49;96.51;97598.75;5001590;28;20535;-81
2023/12/14 09:13:52;;;;;;;20.33;12.70;;;7.10;93.10;;;6.20;96.25;97602.50;4995348;28;20496;-81
2023/12/14 09:16:19;;;;;;;18.37;12.53;;;7.00;92.00;;;6.16;96.53;97609.28;5014728;28;20472;-73
2023/12/14 09:18:49;;;;;;;17.90;12.70;;;6.80;92.20;;;6.23;96.60;97618.22;5015510;28;20465;-72
2023/12/14 09:21:16;;;;;;;16.00;11.00;;;6.90;92.50;;;6.32;95.84;97624.25;5003514;28;20493;-73
2023/12/14 09:23:44;;;;;;;20.40;12.20;;;7.00;92.40;;;6.49;94.66;97630.97;5016357;28;20567;-69
2023/12/14 09:26:11;;;;;;;18.33;12.10;;;7.10;92.30;;;6.64;94.82;97627.31;4995829;28;20451;-72
2023/12/14 09:28:38;;;;;;;20.43;13.30;;;7.20;92.20;;;6.65;94.31;97632.47;5014745;28;20485;-70
2023/12/14 09:31:06;;;;;;;18.20;12.47;;;7.30;91.80;;;6.54;94.55;97637.56;5018651;28;20458;-71
2023/12/14 09:33:33;;;;;;;19.50;13.60;;;7.20;91.60;;;6.64;95.28;97644.22;5019978;28;20922;-71
2023/12/14 09:36:03;;;;;;;14.07;11.17;;;7.20;92.00;;;6.61;93.47;97638.44;5018215;28;20481;-70
2023/12/14 09:38:30;;;;;;;17.07;11.30;;;7.20;91.40;;;6.43;93.80;97637.09;5016868;28;20705;-71
2023/12/14 09:40:58;;;;;;;17.37;11.97;;;7.20;91.10;;;6.59;93.77;97646.69;5019044;28;20485;-71
2023/12/14 09:43:26;;;;;;;18.13;13.13;;;7.20;91.20;;;6.77;93.04;97650.69;5002081;28;20453;-71
2023/12/14 09:45:53;;;;;;;16.87;12.00;;;7.40;91.20;;;6.80;92.31;97642.22;4994188;28;20464;-70
2023/12/14 09:48:22;;;;;;;21.60;13.57;;;7.40;90.80;;;6.94;92.29;97654.69;4997864;28;20463;-71
2023/12/14 09:50:51;;;;;;;19.27;13.23;;;7.50;90.90;;;6.86;92.88;97662.09;5003154;28;20541;-70
2023/12/14 09:53:20;;;;;;;19.43;13.80;;;7.50;91.00;;;7.11;92.45;97666.94;5018848;28;20466;-71
2023/12/14 09:55:48;;;;;;;18.63;11.60;;;7.60;91.20;;;6.94;91.21;97665.44;5012125;28;20474;-72
2023/12/14 09:58:15;;;;;;;18.30;12.97;;;7.60;90.40;;;6.95;91.93;97668.97;5019313;28;20470;-70
2023/12/14 10:00:43;;;;;;;22.83;13.10;;;7.60;90.60;;;6.89;92.81;97675.09;5020930;28;20457;-70
2023/12/14 10:03:22;;;;;;;17.33;11.60;;;7.60;90.70;;;7.14;91.80;97674.59;4994042;28;20561;-72
2023/12/14 10:05:49;;;;;;;19.40;15.55;;;7.60;90.80;;;7.26;90.44;97672.97;4996958;28;20466;-72
2023/12/14 10:08:19;;;;;;;17.00;12.60;;;7.80;90.60;;;7.40;88.77;97673.03;5011830;28;20215;-70
2023/12/14 10:10:51;;;;;;;22.80;12.60;;;7.90;90.30;;;7.65;87.27;97682.16;5014105;28;20447;-71
2023/12/14 10:13:19;;;;;;;19.10;13.30;;;8.00;89.70;;;7.64;87.18;97680.50;4995443;28;20460;-70
2023/12/14 10:15:49;;;;;;;15.57;12.20;;;8.10;88.90;;;7.71;86.71;97679.69;5015216;28;20531;-71
2023/12/14 10:18:24;;;;;;;20.57;13.60;;;8.20;89.00;;;8.01;87.18;97674.72;5013365;28;21137;-72
2023/12/14 10:20:53;;;;;;;18.60;13.53;;;8.40;89.10;;;7.74;88.00;97684.66;5018990;28;20971;-71